El Dorado International Airport
SKBO : now visible

Airfield :











YOU CAN JOIN US ON...

 
LOGIN :

Register | Disclaimer

   EN    FR    IT 

 









Legend :    VFR   Marginal VFR   IFR   Intensive IFR   Very Intensive IFR
Visi :
Ceiling :
>= 8 km
>= 3000ft
5 to 8 km
1000 to 3000 ft
1500m to 5 km
500 to 1000 ft
800 to 1500m
200 to 500 ft
< 800m
< 200 ft
Symbols :   Thunderstorms  Fog  Heavy snow  Heavy precipitations  Wind > 20 kt






- Airport Elevation : 8361 ft
- IATA code : BOG


SKBO - El Dorado International

CURRENT METAR :
  • 260300Z 29003KT 9999 VCSH SCT015 BKN080 14/13 A3038 NOSIG RMK VCSH/SE

EXPIRED METARs :
  • 260200Z 32003KT 9999 FEW017 BKN080 15/13 A3037 NOSIG RMK VCSH/NE/SE
  • 260100Z 30006KT 9999 VCSH FEW017 BKN080 15/13 A3033 NOSIG RMK VCSH/SE

TAF TAF SKBO
Valid from the 26 at 00:00 until the 27 at 00:00 UTC


252230Z 2600/2624 29007KT 9999 SCT017 SCT080
BECMG 2602/2604 VRB02KT
PROB40
TEMPO 2609/2612 6000 DZ BKN015
BECMG 2616/2618 33011KT TX22/2618Z TN08/2610Z



MET'MAP, your aeronautical weather chart ! - Copyright ORBIFLY December 2007 - Disclaimer

ORBIFLY MET'MAP TEAM :

Programming & Development : Alexandra Zaïnal
Concept & original design : Baudouin d'Aumeries
Assistance for programming : Marc-Olivier Méhu
Technical & hardware support : Manuel Goepfert

Contact : metmap@orbifly.com




SOURCES & CREDITS :

   NOAA       Earth
Advisory